sensor_id;sensor_type;location;lat;lon;timestamp;temperature;humidity
24802;DHT22;12898;50.520;12.152;2022-11-04T00:01:58;9.80;99.90
24802;DHT22;12898;50.520;12.152;2022-11-04T00:04:26;9.80;99.90
24802;DHT22;12898;50.520;12.152;2022-11-04T00:06:54;9.80;99.90
24802;DHT22;12898;50.520;12.152;2022-11-04T00:09:23;9.80;99.90
24802;DHT22;12898;50.520;12.152;2022-11-04T00:11:51;9.90;99.90
24802;DHT22;12898;50.520;12.152;2022-11-04T00:14:36;9.90;99.90
24802;DHT22;12898;50.520;12.152;2022-11-04T00:17:03;9.90;99.90
24802;DHT22;12898;50.520;12.152;2022-11-04T00:19:48;9.90;99.90
24802;DHT22;12898;50.520;12.152;2022-11-04T00:22:34;9.90;99.90
24802;DHT22;12898;50.520;12.152;2022-11-04T00:25:19;9.90;99.90
24802;DHT22;12898;50.520;12.152;2022-11-04T00:28:15;10.00;99.90
24802;DHT22;12898;50.520;12.152;2022-11-04T00:31:02;10.10;99.90
24802;DHT22;12898;50.520;12.152;2022-11-04T00:33:49;10.10;99.90
24802;DHT22;12898;50.520;12.152;2022-11-04T00:36:16;10.10;99.90
24802;DHT22;12898;50.520;12.152;2022-11-04T00:38:41;10.10;99.90
24802;DHT22;12898;50.520;12.152;2022-11-04T00:41:07;10.20;99.90
24802;DHT22;12898;50.520;12.152;2022-11-04T00:43:51;10.20;99.90
24802;DHT22;12898;50.520;12.152;2022-11-04T00:46:24;10.20;99.90
24802;DHT22;12898;50.520;12.152;2022-11-04T00:48:50;10.20;99.90
24802;DHT22;12898;50.520;12.152;2022-11-04T00:51:16;10.10;99.90
24802;DHT22;12898;50.520;12.152;2022-11-04T00:53:42;10.10;99.90
24802;DHT22;12898;50.520;12.152;2022-11-04T00:56:08;10.20;99.90
24802;DHT22;12898;50.520;12.152;2022-11-04T00:58:33;10.10;99.90
24802;DHT22;12898;50.520;12.152;2022-11-04T01:00:59;10.10;99.90
24802;DHT22;12898;50.520;12.152;2022-11-04T01:03:25;10.00;99.90
24802;DHT22;12898;50.520;12.152;2022-11-04T01:05:50;10.00;99.90
24802;DHT22;12898;50.520;12.152;2022-11-04T01:08:16;10.00;99.90
24802;DHT22;12898;50.520;12.152;2022-11-04T01:10:42;10.00;99.90
24802;DHT22;12898;50.520;12.152;2022-11-04T01:13:12;10.10;99.90
24802;DHT22;12898;50.520;12.152;2022-11-04T01:15:38;10.10;99.90
24802;DHT22;12898;50.520;12.152;2022-11-04T01:18:05;10.10;99.90
24802;DHT22;12898;50.520;12.152;2022-11-04T01:20:31;10.10;99.90
24802;DHT22;12898;50.520;12.152;2022-11-04T01:22:57;10.10;99.90
24802;DHT22;12898;50.520;12.152;2022-11-04T01:25:23;10.10;99.90
24802;DHT22;12898;50.520;12.152;2022-11-04T01:27:49;10.10;99.90
24802;DHT22;12898;50.520;12.152;2022-11-04T01:30:14;10.10;99.90
24802;DHT22;12898;50.520;12.152;2022-11-04T01:32:40;10.10;99.90
24802;DHT22;12898;50.520;12.152;2022-11-04T01:35:07;10.10;99.90
24802;DHT22;12898;50.520;12.152;2022-11-04T01:37:33;10.10;99.90
24802;DHT22;12898;50.520;12.152;2022-11-04T01:39:59;10.20;99.90
24802;DHT22;12898;50.520;12.152;2022-11-04T01:42:25;10.10;99.90
24802;DHT22;12898;50.520;12.152;2022-11-04T01:44:55;10.20;99.90
24802;DHT22;12898;50.520;12.152;2022-11-04T01:47:27;10.20;99.90
24802;DHT22;12898;50.520;12.152;2022-11-04T01:52:56;10.30;99.90
24802;DHT22;12898;50.520;12.152;2022-11-04T01:55:34;10.30;99.90
24802;DHT22;12898;50.520;12.152;2022-11-04T01:58:04;10.30;99.90
24802;DHT22;12898;50.520;12.152;2022-11-04T02:00:32;10.30;99.90
24802;DHT22;12898;50.520;12.152;2022-11-04T02:03:10;10.40;99.90
24802;DHT22;12898;50.520;12.152;2022-11-04T02:05:38;10.40;99.90
24802;DHT22;12898;50.520;12.152;2022-11-04T02:08:05;10.40;99.90
24802;DHT22;12898;50.520;12.152;2022-11-04T02:10:32;10.30;99.90
24802;DHT22;12898;50.520;12.152;2022-11-04T02:13:01;10.40;99.90
24802;DHT22;12898;50.520;12.152;2022-11-04T02:18:57;10.40;99.90
24802;DHT22;12898;50.520;12.152;2022-11-04T02:30:17;10.40;99.90
24802;DHT22;12898;50.520;12.152;2022-11-04T02:32:50;10.50;99.90
24802;DHT22;12898;50.520;12.152;2022-11-04T02:35:45;10.50;99.90
24802;DHT22;12898;50.520;12.152;2022-11-04T02:38:37;10.50;99.90
24802;DHT22;12898;50.520;12.152;2022-11-04T02:44:21;10.50;99.90
24802;DHT22;12898;50.520;12.152;2022-11-04T02:47:15;10.40;99.90
24802;DHT22;12898;50.520;12.152;2022-11-04T02:50:02;10.40;99.90
24802;DHT22;12898;50.520;12.152;2022-11-04T02:53:04;10.40;99.90
24802;DHT22;12898;50.520;12.152;2022-11-04T02:55:38;10.40;99.90
24802;DHT22;12898;50.520;12.152;2022-11-04T02:58:11;10.40;99.90
24802;DHT22;12898;50.520;12.152;2022-11-04T03:00:41;10.40;99.90
24802;DHT22;12898;50.520;12.152;2022-11-04T03:03:14;10.40;99.90
24802;DHT22;12898;50.520;12.152;2022-11-04T03:05:47;10.40;99.90
24802;DHT22;12898;50.520;12.152;2022-11-04T03:08:31;10.40;99.90
24802;DHT22;12898;50.520;12.152;2022-11-04T03:11:07;10.40;99.90
24802;DHT22;12898;50.520;12.152;2022-11-04T03:16:21;10.40;99.90
24802;DHT22;12898;50.520;12.152;2022-11-04T03:19:05;10.40;99.90
24802;DHT22;12898;50.520;12.152;2022-11-04T03:21:39;10.40;99.90
24802;DHT22;12898;50.520;12.152;2022-11-04T03:24:08;10.30;99.90
24802;DHT22;12898;50.520;12.152;2022-11-04T03:26:40;10.30;99.90
24802;DHT22;12898;50.520;12.152;2022-11-04T03:30:29;10.30;99.90
24802;DHT22;12898;50.520;12.152;2022-11-04T03:33:39;10.20;99.90
24802;DHT22;12898;50.520;12.152;2022-11-04T03:35:32;10.20;99.90
24802;DHT22;12898;50.520;12.152;2022-11-04T03:37:58;10.20;99.90
24802;DHT22;12898;50.520;12.152;2022-11-04T03:40:25;10.20;99.90
24802;DHT22;12898;50.520;12.152;2022-11-04T03:43:04;10.20;99.90
24802;DHT22;12898;50.520;12.152;2022-11-04T03:45:33;10.20;99.90
24802;DHT22;12898;50.520;12.152;2022-11-04T03:47:59;10.20;99.90
24802;DHT22;12898;50.520;12.152;2022-11-04T03:50:31;10.20;99.90
24802;DHT22;12898;50.520;12.152;2022-11-04T03:52:58;10.10;99.90
24802;DHT22;12898;50.520;12.152;2022-11-04T03:55:47;10.10;99.90
24802;DHT22;12898;50.520;12.152;2022-11-04T04:01:12;10.10;99.90
24802;DHT22;12898;50.520;12.152;2022-11-04T04:04:22;10.10;99.90
24802;DHT22;12898;50.520;12.152;2022-11-04T04:06:55;10.10;99.90
24802;DHT22;12898;50.520;12.152;2022-11-04T04:10:03;10.10;99.90
24802;DHT22;12898;50.520;12.152;2022-11-04T04:12:59;10.10;99.90
24802;DHT22;12898;50.520;12.152;2022-11-04T04:15:30;10.10;99.90
24802;DHT22;12898;50.520;12.152;2022-11-04T04:18:06;10.00;99.90
24802;DHT22;12898;50.520;12.152;2022-11-04T04:20:35;10.00;99.90
24802;DHT22;12898;50.520;12.152;2022-11-04T04:23:09;10.00;99.90
24802;DHT22;12898;50.520;12.152;2022-11-04T04:25:58;10.00;99.90
24802;DHT22;12898;50.520;12.152;2022-11-04T04:28:52;10.00;99.90
24802;DHT22;12898;50.520;12.152;2022-11-04T04:31:19;10.00;99.90
24802;DHT22;12898;50.520;12.152;2022-11-04T04:34:05;9.90;99.90
24802;DHT22;12898;50.520;12.152;2022-11-04T04:36:42;9.90;99.90
24802;DHT22;12898;50.520;12.152;2022-11-04T04:39:17;9.90;99.90
24802;DHT22;12898;50.520;12.152;2022-11-04T04:42:03;9.90;99.90
24802;DHT22;12898;50.520;12.152;2022-11-04T04:44:49;9.80;99.90
24802;DHT22;12898;50.520;12.152;2022-11-04T04:47:43;9.80;99.90
24802;DHT22;12898;50.520;12.152;2022-11-04T04:50:15;9.80;99.90
24802;DHT22;12898;50.520;12.152;2022-11-04T04:52:45;9.80;99.90
24802;DHT22;12898;50.520;12.152;2022-11-04T04:55:13;9.70;99.90
24802;DHT22;12898;50.520;12.152;2022-11-04T04:57:39;9.70;99.90
24802;DHT22;12898;50.520;12.152;2022-11-04T05:00:06;9.70;99.90
24802;DHT22;12898;50.520;12.152;2022-11-04T05:02:34;9.70;99.90
24802;DHT22;12898;50.520;12.152;2022-11-04T05:05:01;9.70;99.90
24802;DHT22;12898;50.520;12.152;2022-11-04T05:07:27;9.80;99.90
24802;DHT22;12898;50.520;12.152;2022-11-04T05:09:53;9.80;99.90
24802;DHT22;12898;50.520;12.152;2022-11-04T05:12:18;9.80;99.90
24802;DHT22;12898;50.520;12.152;2022-11-04T05:14:44;9.70;99.90
24802;DHT22;12898;50.520;12.152;2022-11-04T05:17:10;9.80;99.90
24802;DHT22;12898;50.520;12.152;2022-11-04T05:19:36;9.70;99.90
24802;DHT22;12898;50.520;12.152;2022-11-04T05:22:02;9.80;99.90
24802;DHT22;12898;50.520;12.152;2022-11-04T05:24:28;9.80;99.90
24802;DHT22;12898;50.520;12.152;2022-11-04T05:26:54;9.80;99.90
24802;DHT22;12898;50.520;12.152;2022-11-04T05:29:20;9.80;99.90
24802;DHT22;12898;50.520;12.152;2022-11-04T05:31:46;9.70;99.90
24802;DHT22;12898;50.520;12.152;2022-11-04T05:34:12;9.70;99.90
24802;DHT22;12898;50.520;12.152;2022-11-04T05:36:39;9.70;99.90
24802;DHT22;12898;50.520;12.152;2022-11-04T05:39:05;9.70;99.90
24802;DHT22;12898;50.520;12.152;2022-11-04T05:41:31;9.70;99.90
24802;DHT22;12898;50.520;12.152;2022-11-04T05:44:00;9.70;99.90
24802;DHT22;12898;50.520;12.152;2022-11-04T05:46:27;9.70;99.90
24802;DHT22;12898;50.520;12.152;2022-11-04T05:48:54;9.60;99.90
24802;DHT22;12898;50.520;12.152;2022-11-04T05:51:25;9.60;99.90
24802;DHT22;12898;50.520;12.152;2022-11-04T05:53:51;9.60;99.90
24802;DHT22;12898;50.520;12.152;2022-11-04T05:56:18;9.50;99.90
24802;DHT22;12898;50.520;12.152;2022-11-04T05:58:44;9.50;99.90
24802;DHT22;12898;50.520;12.152;2022-11-04T06:01:32;9.50;99.90
24802;DHT22;12898;50.520;12.152;2022-11-04T06:04:03;9.40;99.90
24802;DHT22;12898;50.520;12.152;2022-11-04T06:06:33;9.40;99.90
24802;DHT22;12898;50.520;12.152;2022-11-04T06:09:01;9.40;99.90
24802;DHT22;12898;50.520;12.152;2022-11-04T06:11:29;9.40;99.90
24802;DHT22;12898;50.520;12.152;2022-11-04T06:13:56;9.40;99.90
24802;DHT22;12898;50.520;12.152;2022-11-04T06:16:22;9.40;99.90
24802;DHT22;12898;50.520;12.152;2022-11-04T06:18:49;9.30;99.90
24802;DHT22;12898;50.520;12.152;2022-11-04T06:23:41;9.30;99.90
24802;DHT22;12898;50.520;12.152;2022-11-04T06:26:08;9.30;99.90
24802;DHT22;12898;50.520;12.152;2022-11-04T06:28:34;9.30;99.90
24802;DHT22;12898;50.520;12.152;2022-11-04T06:31:01;9.30;99.90
24802;DHT22;12898;50.520;12.152;2022-11-04T06:33:29;9.30;99.90
24802;DHT22;12898;50.520;12.152;2022-11-04T06:35:58;9.30;99.90
24802;DHT22;12898;50.520;12.152;2022-11-04T06:38:25;9.40;99.90
24802;DHT22;12898;50.520;12.152;2022-11-04T06:40:51;9.40;99.90
24802;DHT22;12898;50.520;12.152;2022-11-04T06:43:17;9.50;99.90
24802;DHT22;12898;50.520;12.152;2022-11-04T06:45:43;9.50;99.90
24802;DHT22;12898;50.520;12.152;2022-11-04T06:48:08;9.50;99.90
24802;DHT22;12898;50.520;12.152;2022-11-04T06:50:34;9.50;99.90
24802;DHT22;12898;50.520;12.152;2022-11-04T06:53:00;9.60;99.90
24802;DHT22;12898;50.520;12.152;2022-11-04T06:55:26;9.60;99.90
24802;DHT22;12898;50.520;12.152;2022-11-04T06:57:51;9.60;99.90
24802;DHT22;12898;50.520;12.152;2022-11-04T07:00:17;9.60;99.90
24802;DHT22;12898;50.520;12.152;2022-11-04T07:02:43;9.60;99.90
24802;DHT22;12898;50.520;12.152;2022-11-04T07:05:08;9.60;99.90
24802;DHT22;12898;50.520;12.152;2022-11-04T07:07:34;9.60;99.90
24802;DHT22;12898;50.520;12.152;2022-11-04T07:10:00;9.60;99.90
24802;DHT22;12898;50.520;12.152;2022-11-04T07:12:26;9.60;99.90
24802;DHT22;12898;50.520;12.152;2022-11-04T07:14:51;9.60;99.90
24802;DHT22;12898;50.520;12.152;2022-11-04T07:17:17;9.60;99.90
24802;DHT22;12898;50.520;12.152;2022-11-04T07:19:43;9.60;99.90
24802;DHT22;12898;50.520;12.152;2022-11-04T07:22:09;9.60;99.90
24802;DHT22;12898;50.520;12.152;2022-11-04T07:24:35;9.60;99.90
24802;DHT22;12898;50.520;12.152;2022-11-04T07:27:00;9.60;99.90
24802;DHT22;12898;50.520;12.152;2022-11-04T07:29:29;9.60;99.90
24802;DHT22;12898;50.520;12.152;2022-11-04T07:31:55;9.60;99.90
24802;DHT22;12898;50.520;12.152;2022-11-04T07:34:20;9.60;99.90
24802;DHT22;12898;50.520;12.152;2022-11-04T07:36:46;9.60;99.90
24802;DHT22;12898;50.520;12.152;2022-11-04T07:39:12;9.60;99.90
24802;DHT22;12898;50.520;12.152;2022-11-04T07:41:38;9.70;99.90
24802;DHT22;12898;50.520;12.152;2022-11-04T07:44:03;9.70;99.90
24802;DHT22;12898;50.520;12.152;2022-11-04T07:46:31;9.70;99.90
24802;DHT22;12898;50.520;12.152;2022-11-04T07:48:58;9.70;99.90
24802;DHT22;12898;50.520;12.152;2022-11-04T07:51:24;9.60;99.90
24802;DHT22;12898;50.520;12.152;2022-11-04T07:53:51;9.60;99.90
24802;DHT22;12898;50.520;12.152;2022-11-04T07:56:18;9.60;99.90
24802;DHT22;12898;50.520;12.152;2022-11-04T07:58:44;9.60;99.90
24802;DHT22;12898;50.520;12.152;2022-11-04T08:01:13;9.60;99.90
24802;DHT22;12898;50.520;12.152;2022-11-04T08:03:40;9.50;99.90
24802;DHT22;12898;50.520;12.152;2022-11-04T08:06:07;9.50;99.90
24802;DHT22;12898;50.520;12.152;2022-11-04T08:08:34;9.50;99.90
24802;DHT22;12898;50.520;12.152;2022-11-04T08:11:08;9.50;99.90
24802;DHT22;12898;50.520;12.152;2022-11-04T08:13:37;9.40;99.90
24802;DHT22;12898;50.520;12.152;2022-11-04T08:16:05;9.40;99.90
24802;DHT22;12898;50.520;12.152;2022-11-04T08:18:34;9.40;99.90
24802;DHT22;12898;50.520;12.152;2022-11-04T08:21:01;9.40;99.90
24802;DHT22;12898;50.520;12.152;2022-11-04T08:23:28;9.30;99.90
24802;DHT22;12898;50.520;12.152;2022-11-04T08:25:55;9.40;99.90
24802;DHT22;12898;50.520;12.152;2022-11-04T08:28:21;9.40;99.90
24802;DHT22;12898;50.520;12.152;2022-11-04T08:30:57;9.40;99.90
24802;DHT22;12898;50.520;12.152;2022-11-04T08:33:29;9.40;99.90
24802;DHT22;12898;50.520;12.152;2022-11-04T08:36:00;9.30;99.90
24802;DHT22;12898;50.520;12.152;2022-11-04T08:38:31;9.30;99.90
24802;DHT22;12898;50.520;12.152;2022-11-04T08:40:58;9.30;99.90
24802;DHT22;12898;50.520;12.152;2022-11-04T08:43:24;9.30;99.90
24802;DHT22;12898;50.520;12.152;2022-11-04T08:45:51;9.30;99.90
24802;DHT22;12898;50.520;12.152;2022-11-04T08:48:17;9.30;99.90
24802;DHT22;12898;50.520;12.152;2022-11-04T08:50:46;9.20;99.90
24802;DHT22;12898;50.520;12.152;2022-11-04T08:53:13;9.30;99.90
24802;DHT22;12898;50.520;12.152;2022-11-04T08:55:39;9.30;99.90
24802;DHT22;12898;50.520;12.152;2022-11-04T08:58:05;9.30;99.90
24802;DHT22;12898;50.520;12.152;2022-11-04T09:00:30;9.40;99.90
24802;DHT22;12898;50.520;12.152;2022-11-04T09:02:57;9.30;99.90
24802;DHT22;12898;50.520;12.152;2022-11-04T09:05:24;9.30;99.90
24802;DHT22;12898;50.520;12.152;2022-11-04T09:07:50;9.30;99.90
24802;DHT22;12898;50.520;12.152;2022-11-04T09:10:17;9.30;99.90
24802;DHT22;12898;50.520;12.152;2022-11-04T09:12:43;9.20;99.90
24802;DHT22;12898;50.520;12.152;2022-11-04T09:15:10;9.20;99.90
24802;DHT22;12898;50.520;12.152;2022-11-04T09:17:36;9.20;99.90
24802;DHT22;12898;50.520;12.152;2022-11-04T09:20:03;9.20;99.90
24802;DHT22;12898;50.520;12.152;2022-11-04T09:22:29;9.20;99.90
24802;DHT22;12898;50.520;12.152;2022-11-04T09:24:56;9.20;99.90
24802;DHT22;12898;50.520;12.152;2022-11-04T09:27:22;9.20;99.90
24802;DHT22;12898;50.520;12.152;2022-11-04T09:29:47;9.20;99.90
24802;DHT22;12898;50.520;12.152;2022-11-04T09:32:13;9.20;99.90
24802;DHT22;12898;50.520;12.152;2022-11-04T09:34:39;9.30;99.90
24802;DHT22;12898;50.520;12.152;2022-11-04T09:37:13;9.30;99.90
24802;DHT22;12898;50.520;12.152;2022-11-04T09:39:40;9.30;99.90
24802;DHT22;12898;50.520;12.152;2022-11-04T09:42:24;9.30;99.90
24802;DHT22;12898;50.520;12.152;2022-11-04T09:45:15;9.30;99.90
24802;DHT22;12898;50.520;12.152;2022-11-04T09:47:45;9.30;99.90
24802;DHT22;12898;50.520;12.152;2022-11-04T09:50:21;9.30;99.90
24802;DHT22;12898;50.520;12.152;2022-11-04T09:52:55;9.30;99.90
24802;DHT22;12898;50.520;12.152;2022-11-04T09:58:17;9.40;99.90
24802;DHT22;12898;50.520;12.152;2022-11-04T10:00:54;9.30;99.90
24802;DHT22;12898;50.520;12.152;2022-11-04T10:09:57;9.40;99.90
24802;DHT22;12898;50.520;12.152;2022-11-04T10:15:24;9.40;99.90
24802;DHT22;12898;50.520;12.152;2022-11-04T10:18:27;9.50;99.90
24802;DHT22;12898;50.520;12.152;2022-11-04T10:21:08;9.40;99.90
24802;DHT22;12898;50.520;12.152;2022-11-04T10:23:48;9.40;99.90
24802;DHT22;12898;50.520;12.152;2022-11-04T10:32:33;9.40;99.90
24802;DHT22;12898;50.520;12.152;2022-11-04T10:35:05;9.30;99.90
24802;DHT22;12898;50.520;12.152;2022-11-04T10:37:39;9.40;99.90
24802;DHT22;12898;50.520;12.152;2022-11-04T10:40:15;9.40;99.90
24802;DHT22;12898;50.520;12.152;2022-11-04T10:42:45;9.30;99.90
24802;DHT22;12898;50.520;12.152;2022-11-04T10:45:14;9.40;99.90
24802;DHT22;12898;50.520;12.152;2022-11-04T10:47:50;9.40;99.90
24802;DHT22;12898;50.520;12.152;2022-11-04T10:50:32;9.40;99.90
24802;DHT22;12898;50.520;12.152;2022-11-04T10:53:11;9.40;99.90
24802;DHT22;12898;50.520;12.152;2022-11-04T10:55:46;9.40;99.90
24802;DHT22;12898;50.520;12.152;2022-11-04T10:58:21;9.50;99.90
24802;DHT22;12898;50.520;12.152;2022-11-04T11:00:49;9.60;99.90
24802;DHT22;12898;50.520;12.152;2022-11-04T11:03:28;9.70;99.90
24802;DHT22;12898;50.520;12.152;2022-11-04T11:06:20;9.80;99.90
24802;DHT22;12898;50.520;12.152;2022-11-04T11:08:50;9.90;99.90
24802;DHT22;12898;50.520;12.152;2022-11-04T11:11:43;9.90;99.90
24802;DHT22;12898;50.520;12.152;2022-11-04T11:16:45;10.00;99.90
24802;DHT22;12898;50.520;12.152;2022-11-04T11:19:20;10.10;99.90
24802;DHT22;12898;50.520;12.152;2022-11-04T11:21:52;10.10;99.90
24802;DHT22;12898;50.520;12.152;2022-11-04T11:24:23;10.10;99.90
24802;DHT22;12898;50.520;12.152;2022-11-04T11:26:52;10.00;99.90
24802;DHT22;12898;50.520;12.152;2022-11-04T11:29:33;10.00;99.90
24802;DHT22;12898;50.520;12.152;2022-11-04T11:32:31;9.90;99.90
24802;DHT22;12898;50.520;12.152;2022-11-04T11:34:58;9.90;99.90
24802;DHT22;12898;50.520;12.152;2022-11-04T11:37:29;9.90;99.90
24802;DHT22;12898;50.520;12.152;2022-11-04T11:39:56;9.90;99.90
24802;DHT22;12898;50.520;12.152;2022-11-04T11:42:22;9.90;99.90
24802;DHT22;12898;50.520;12.152;2022-11-04T11:44:58;9.90;99.90
24802;DHT22;12898;50.520;12.152;2022-11-04T11:52:40;9.90;99.90
24802;DHT22;12898;50.520;12.152;2022-11-04T11:55:21;10.00;99.90
24802;DHT22;12898;50.520;12.152;2022-11-04T12:00:48;10.00;99.90
24802;DHT22;12898;50.520;12.152;2022-11-04T12:03:38;10.10;99.90
24802;DHT22;12898;50.520;12.152;2022-11-04T12:32:30;10.40;99.90
24802;DHT22;12898;50.520;12.152;2022-11-04T12:38:20;10.20;99.90
24802;DHT22;12898;50.520;12.152;2022-11-04T12:44:36;10.00;99.90
24802;DHT22;12898;50.520;12.152;2022-11-04T12:53:13;9.90;99.90
24802;DHT22;12898;50.520;12.152;2022-11-04T12:55:56;9.90;99.90
24802;DHT22;12898;50.520;12.152;2022-11-04T13:01:49;9.80;99.90
24802;DHT22;12898;50.520;12.152;2022-11-04T13:04:21;9.80;99.90
24802;DHT22;12898;50.520;12.152;2022-11-04T13:07:02;9.80;99.90
24802;DHT22;12898;50.520;12.152;2022-11-04T13:12:19;9.90;99.90
24802;DHT22;12898;50.520;12.152;2022-11-04T13:15:06;9.90;99.90
24802;DHT22;12898;50.520;12.152;2022-11-04T13:17:43;9.80;99.90
24802;DHT22;12898;50.520;12.152;2022-11-04T13:20:20;9.80;99.90
24802;DHT22;12898;50.520;12.152;2022-11-04T13:23:01;9.80;99.90
24802;DHT22;12898;50.520;12.152;2022-11-04T13:25:42;9.80;99.90
24802;DHT22;12898;50.520;12.152;2022-11-04T13:28:15;9.80;99.90
24802;DHT22;12898;50.520;12.152;2022-11-04T13:30:55;9.90;99.90
24802;DHT22;12898;50.520;12.152;2022-11-04T13:39:48;9.90;99.90
24802;DHT22;12898;50.520;12.152;2022-11-04T13:45:11;9.90;99.90
24802;DHT22;12898;50.520;12.152;2022-11-04T13:47:57;9.80;99.90
24802;DHT22;12898;50.520;12.152;2022-11-04T13:52:55;9.70;99.90
24802;DHT22;12898;50.520;12.152;2022-11-04T13:55:22;9.70;99.90
24802;DHT22;12898;50.520;12.152;2022-11-04T13:57:57;9.60;99.90
24802;DHT22;12898;50.520;12.152;2022-11-04T14:00:33;9.60;99.90
24802;DHT22;12898;50.520;12.152;2022-11-04T14:08:36;9.50;99.90
24802;DHT22;12898;50.520;12.152;2022-11-04T14:12:43;9.50;99.90
24802;DHT22;12898;50.520;12.152;2022-11-04T14:14:54;9.40;99.90
24802;DHT22;12898;50.520;12.152;2022-11-04T14:22:52;9.20;99.90
24802;DHT22;12898;50.520;12.152;2022-11-04T14:25:39;9.20;99.90
24802;DHT22;12898;50.520;12.152;2022-11-04T14:41:53;8.70;99.90
24802;DHT22;12898;50.520;12.152;2022-11-04T14:44:49;8.70;99.90
24802;DHT22;12898;50.520;12.152;2022-11-04T14:47:27;8.60;99.90
24802;DHT22;12898;50.520;12.152;2022-11-04T14:50:19;8.70;99.90
24802;DHT22;12898;50.520;12.152;2022-11-04T14:52:55;8.60;99.90
24802;DHT22;12898;50.520;12.152;2022-11-04T14:55:29;8.60;99.90
24802;DHT22;12898;50.520;12.152;2022-11-04T14:57:58;8.60;99.90
24802;DHT22;12898;50.520;12.152;2022-11-04T15:06:01;8.50;99.90
24802;DHT22;12898;50.520;12.152;2022-11-04T15:08:31;8.50;99.90
24802;DHT22;12898;50.520;12.152;2022-11-04T15:13:37;8.40;99.90
24802;DHT22;12898;50.520;12.152;2022-11-04T15:18:44;8.40;99.90
24802;DHT22;12898;50.520;12.152;2022-11-04T15:21:10;8.30;99.90
24802;DHT22;12898;50.520;12.152;2022-11-04T15:23:45;8.30;99.90
24802;DHT22;12898;50.520;12.152;2022-11-04T15:26:27;8.20;99.90
24802;DHT22;12898;50.520;12.152;2022-11-04T15:28:55;8.10;99.90
24802;DHT22;12898;50.520;12.152;2022-11-04T15:31:24;8.10;99.90
24802;DHT22;12898;50.520;12.152;2022-11-04T15:33:53;8.00;99.90
24802;DHT22;12898;50.520;12.152;2022-11-04T15:36:40;8.00;99.90
24802;DHT22;12898;50.520;12.152;2022-11-04T15:41:42;7.80;99.90
24802;DHT22;12898;50.520;12.152;2022-11-04T15:44:31;7.80;99.90
24802;DHT22;12898;50.520;12.152;2022-11-04T15:47:01;7.70;99.90
24802;DHT22;12898;50.520;12.152;2022-11-04T15:49:42;7.70;99.90
24802;DHT22;12898;50.520;12.152;2022-11-04T15:52:15;7.60;99.90
24802;DHT22;12898;50.520;12.152;2022-11-04T15:54:53;7.60;99.90
24802;DHT22;12898;50.520;12.152;2022-11-04T15:57:39;7.60;99.90
24802;DHT22;12898;50.520;12.152;2022-11-04T16:00:20;7.50;99.90
24802;DHT22;12898;50.520;12.152;2022-11-04T16:02:52;7.50;99.90
24802;DHT22;12898;50.520;12.152;2022-11-04T16:05:30;7.50;99.90
24802;DHT22;12898;50.520;12.152;2022-11-04T16:08:25;7.50;99.90
24802;DHT22;12898;50.520;12.152;2022-11-04T16:11:13;7.50;99.90
24802;DHT22;12898;50.520;12.152;2022-11-04T16:13:40;7.40;99.90
24802;DHT22;12898;50.520;12.152;2022-11-04T16:24:46;7.30;99.90
24802;DHT22;12898;50.520;12.152;2022-11-04T16:27:09;7.30;99.90
24802;DHT22;12898;50.520;12.152;2022-11-04T16:29:36;7.30;99.90
24802;DHT22;12898;50.520;12.152;2022-11-04T16:32:16;7.20;99.90
24802;DHT22;12898;50.520;12.152;2022-11-04T16:34:51;7.20;99.90
24802;DHT22;12898;50.520;12.152;2022-11-04T16:37:18;7.20;99.90
24802;DHT22;12898;50.520;12.152;2022-11-04T16:39:44;7.20;99.90
24802;DHT22;12898;50.520;12.152;2022-11-04T16:42:11;7.10;99.90
24802;DHT22;12898;50.520;12.152;2022-11-04T16:44:39;7.10;99.90
24802;DHT22;12898;50.520;12.152;2022-11-04T16:47:05;7.10;99.90
24802;DHT22;12898;50.520;12.152;2022-11-04T16:49:30;7.00;99.90
24802;DHT22;12898;50.520;12.152;2022-11-04T16:52:00;7.00;99.90
24802;DHT22;12898;50.520;12.152;2022-11-04T16:54:27;7.00;99.90
24802;DHT22;12898;50.520;12.152;2022-11-04T16:56:54;7.00;99.90
24802;DHT22;12898;50.520;12.152;2022-11-04T16:59:22;6.90;99.90
24802;DHT22;12898;50.520;12.152;2022-11-04T17:01:48;6.90;99.90
24802;DHT22;12898;50.520;12.152;2022-11-04T17:04:14;6.90;99.90
24802;DHT22;12898;50.520;12.152;2022-11-04T17:06:42;6.90;99.90
24802;DHT22;12898;50.520;12.152;2022-11-04T17:09:22;6.80;99.90
24802;DHT22;12898;50.520;12.152;2022-11-04T17:11:48;6.80;99.90
24802;DHT22;12898;50.520;12.152;2022-11-04T17:14:17;6.80;99.90
24802;DHT22;12898;50.520;12.152;2022-11-04T17:16:45;6.80;99.90
24802;DHT22;12898;50.520;12.152;2022-11-04T17:19:14;6.70;99.90
24802;DHT22;12898;50.520;12.152;2022-11-04T17:21:41;6.70;99.90
24802;DHT22;12898;50.520;12.152;2022-11-04T17:24:10;6.70;99.90
24802;DHT22;12898;50.520;12.152;2022-11-04T17:26:36;6.60;99.90
24802;DHT22;12898;50.520;12.152;2022-11-04T17:29:01;6.60;99.90
24802;DHT22;12898;50.520;12.152;2022-11-04T17:31:32;6.60;99.90
24802;DHT22;12898;50.520;12.152;2022-11-04T17:33:58;6.60;99.90
24802;DHT22;12898;50.520;12.152;2022-11-04T17:36:23;6.60;99.90
24802;DHT22;12898;50.520;12.152;2022-11-04T17:38:49;6.60;99.90
24802;DHT22;12898;50.520;12.152;2022-11-04T17:41:15;6.60;99.90
24802;DHT22;12898;50.520;12.152;2022-11-04T17:43:59;6.50;99.90
24802;DHT22;12898;50.520;12.152;2022-11-04T17:46:25;6.50;99.90
24802;DHT22;12898;50.520;12.152;2022-11-04T17:49:20;6.50;99.90
24802;DHT22;12898;50.520;12.152;2022-11-04T17:51:57;6.40;99.90
24802;DHT22;12898;50.520;12.152;2022-11-04T17:54:27;6.40;99.90
24802;DHT22;12898;50.520;12.152;2022-11-04T17:56:55;6.40;99.90
24802;DHT22;12898;50.520;12.152;2022-11-04T17:59:22;6.40;99.90
24802;DHT22;12898;50.520;12.152;2022-11-04T18:01:47;6.40;99.90
24802;DHT22;12898;50.520;12.152;2022-11-04T18:04:21;6.40;99.90
24802;DHT22;12898;50.520;12.152;2022-11-04T18:06:48;6.40;99.90
24802;DHT22;12898;50.520;12.152;2022-11-04T18:09:15;6.30;99.90
24802;DHT22;12898;50.520;12.152;2022-11-04T18:11:42;6.30;99.90
24802;DHT22;12898;50.520;12.152;2022-11-04T18:14:28;6.30;99.90
24802;DHT22;12898;50.520;12.152;2022-11-04T18:16:55;6.30;99.90
24802;DHT22;12898;50.520;12.152;2022-11-04T18:19:21;6.30;99.90
24802;DHT22;12898;50.520;12.152;2022-11-04T18:21:48;6.30;99.90
24802;DHT22;12898;50.520;12.152;2022-11-04T18:24:14;6.30;99.90
24802;DHT22;12898;50.520;12.152;2022-11-04T18:26:40;6.20;99.90
24802;DHT22;12898;50.520;12.152;2022-11-04T18:29:07;6.20;99.90
24802;DHT22;12898;50.520;12.152;2022-11-04T18:31:35;6.20;99.90
24802;DHT22;12898;50.520;12.152;2022-11-04T18:34:05;6.20;99.90
24802;DHT22;12898;50.520;12.152;2022-11-04T18:36:34;6.20;99.90
24802;DHT22;12898;50.520;12.152;2022-11-04T18:39:03;6.20;99.90